sensor_id;sensor_type;location;lat;lon;timestamp;temperature;humidity
72865;DHT22;61000;48.120;11.548;2024-01-25T00:02:25;8.20;99.90
72865;DHT22;61000;48.120;11.548;2024-01-25T00:04:52;8.20;99.90
72865;DHT22;61000;48.120;11.548;2024-01-25T00:07:20;8.20;99.90
72865;DHT22;61000;48.120;11.548;2024-01-25T00:09:47;8.20;99.90
72865;DHT22;61000;48.120;11.548;2024-01-25T00:12:13;8.20;99.90
72865;DHT22;61000;48.120;11.548;2024-01-25T00:14:40;8.20;99.90
72865;DHT22;61000;48.120;11.548;2024-01-25T00:17:07;8.20;99.90
72865;DHT22;61000;48.120;11.548;2024-01-25T00:19:34;8.20;99.90
72865;DHT22;61000;48.120;11.548;2024-01-25T00:22:01;8.20;99.90
72865;DHT22;61000;48.120;11.548;2024-01-25T00:24:29;8.20;99.90
72865;DHT22;61000;48.120;11.548;2024-01-25T00:26:56;8.20;99.90
72865;DHT22;61000;48.120;11.548;2024-01-25T00:29:23;8.20;99.90
72865;DHT22;61000;48.120;11.548;2024-01-25T00:31:50;8.20;99.90
72865;DHT22;61000;48.120;11.548;2024-01-25T00:34:17;8.30;99.90
72865;DHT22;61000;48.120;11.548;2024-01-25T00:36:44;8.30;99.90
72865;DHT22;61000;48.120;11.548;2024-01-25T00:39:12;8.30;99.90
72865;DHT22;61000;48.120;11.548;2024-01-25T00:41:41;8.30;99.90
72865;DHT22;61000;48.120;11.548;2024-01-25T00:44:10;8.30;99.90
72865;DHT22;61000;48.120;11.548;2024-01-25T00:46:38;8.40;99.90
72865;DHT22;61000;48.120;11.548;2024-01-25T00:49:05;8.40;99.90
72865;DHT22;61000;48.120;11.548;2024-01-25T00:51:33;8.40;99.90
72865;DHT22;61000;48.120;11.548;2024-01-25T00:54:00;8.40;99.90
72865;DHT22;61000;48.120;11.548;2024-01-25T00:56:28;8.40;99.90
72865;DHT22;61000;48.120;11.548;2024-01-25T00:58:57;8.40;99.90
72865;DHT22;61000;48.120;11.548;2024-01-25T01:01:25;8.40;99.90
72865;DHT22;61000;48.120;11.548;2024-01-25T01:03:52;8.40;99.90
72865;DHT22;61000;48.120;11.548;2024-01-25T01:06:22;8.40;99.90
72865;DHT22;61000;48.120;11.548;2024-01-25T01:08:49;8.40;99.90
72865;DHT22;61000;48.120;11.548;2024-01-25T01:11:16;8.40;99.90
72865;DHT22;61000;48.120;11.548;2024-01-25T01:13:43;8.40;99.90
72865;DHT22;61000;48.120;11.548;2024-01-25T01:16:11;8.50;99.90
72865;DHT22;61000;48.120;11.548;2024-01-25T01:18:38;8.40;99.90
72865;DHT22;61000;48.120;11.548;2024-01-25T01:21:05;8.50;99.90
72865;DHT22;61000;48.120;11.548;2024-01-25T01:23:31;8.50;99.90
72865;DHT22;61000;48.120;11.548;2024-01-25T01:25:58;8.50;99.90
72865;DHT22;61000;48.120;11.548;2024-01-25T01:28:25;8.40;99.90
72865;DHT22;61000;48.120;11.548;2024-01-25T01:30:52;8.50;99.90
72865;DHT22;61000;48.120;11.548;2024-01-25T01:33:20;8.50;99.90
72865;DHT22;61000;48.120;11.548;2024-01-25T01:35:47;8.40;99.90
72865;DHT22;61000;48.120;11.548;2024-01-25T01:38:14;8.40;99.90
72865;DHT22;61000;48.120;11.548;2024-01-25T01:40:41;8.50;99.90
72865;DHT22;61000;48.120;11.548;2024-01-25T01:43:17;8.40;99.90
72865;DHT22;61000;48.120;11.548;2024-01-25T01:45:44;8.40;99.90
72865;DHT22;61000;48.120;11.548;2024-01-25T01:48:12;8.40;99.90
72865;DHT22;61000;48.120;11.548;2024-01-25T01:50:40;8.40;99.90
72865;DHT22;61000;48.120;11.548;2024-01-25T01:53:07;8.40;99.90
72865;DHT22;61000;48.120;11.548;2024-01-25T01:55:34;8.40;99.90
72865;DHT22;61000;48.120;11.548;2024-01-25T01:58:02;8.30;99.90
72865;DHT22;61000;48.120;11.548;2024-01-25T02:00:30;8.40;99.90
72865;DHT22;61000;48.120;11.548;2024-01-25T02:02:59;8.40;99.90
72865;DHT22;61000;48.120;11.548;2024-01-25T02:05:26;8.40;99.90
72865;DHT22;61000;48.120;11.548;2024-01-25T02:07:55;8.40;99.90
72865;DHT22;61000;48.120;11.548;2024-01-25T02:10:22;8.40;99.90
72865;DHT22;61000;48.120;11.548;2024-01-25T02:12:48;8.30;99.90
72865;DHT22;61000;48.120;11.548;2024-01-25T02:15:15;8.30;99.90
72865;DHT22;61000;48.120;11.548;2024-01-25T02:17:42;8.30;99.90
72865;DHT22;61000;48.120;11.548;2024-01-25T02:20:10;8.30;99.90
72865;DHT22;61000;48.120;11.548;2024-01-25T02:22:38;8.30;99.90
72865;DHT22;61000;48.120;11.548;2024-01-25T02:25:05;8.30;99.90
72865;DHT22;61000;48.120;11.548;2024-01-25T02:27:32;8.30;99.90
72865;DHT22;61000;48.120;11.548;2024-01-25T02:30:05;8.30;99.90
72865;DHT22;61000;48.120;11.548;2024-01-25T02:32:32;8.30;99.90
72865;DHT22;61000;48.120;11.548;2024-01-25T02:34:59;8.30;99.90
72865;DHT22;61000;48.120;11.548;2024-01-25T02:37:26;8.30;99.90
72865;DHT22;61000;48.120;11.548;2024-01-25T02:39:54;8.30;99.90
72865;DHT22;61000;48.120;11.548;2024-01-25T02:42:21;8.30;99.90
72865;DHT22;61000;48.120;11.548;2024-01-25T02:44:48;8.30;99.90
72865;DHT22;61000;48.120;11.548;2024-01-25T02:47:15;8.30;99.90
72865;DHT22;61000;48.120;11.548;2024-01-25T02:49:42;8.30;99.90
72865;DHT22;61000;48.120;11.548;2024-01-25T02:52:09;8.30;99.90
72865;DHT22;61000;48.120;11.548;2024-01-25T02:54:37;8.30;99.90
72865;DHT22;61000;48.120;11.548;2024-01-25T02:57:05;8.30;99.90
72865;DHT22;61000;48.120;11.548;2024-01-25T02:59:32;8.30;99.90
72865;DHT22;61000;48.120;11.548;2024-01-25T03:01:59;8.30;99.90
72865;DHT22;61000;48.120;11.548;2024-01-25T03:04:26;8.30;99.90
72865;DHT22;61000;48.120;11.548;2024-01-25T03:06:53;8.30;99.90
72865;DHT22;61000;48.120;11.548;2024-01-25T03:09:19;8.30;99.90
72865;DHT22;61000;48.120;11.548;2024-01-25T03:11:49;8.30;99.90
72865;DHT22;61000;48.120;11.548;2024-01-25T03:14:17;8.40;99.90
72865;DHT22;61000;48.120;11.548;2024-01-25T03:16:44;8.30;99.90
72865;DHT22;61000;48.120;11.548;2024-01-25T03:19:11;8.30;99.90
72865;DHT22;61000;48.120;11.548;2024-01-25T03:21:38;8.30;99.90
72865;DHT22;61000;48.120;11.548;2024-01-25T03:24:06;8.30;99.90
72865;DHT22;61000;48.120;11.548;2024-01-25T03:26:32;8.30;99.90
72865;DHT22;61000;48.120;11.548;2024-01-25T03:28:59;8.30;99.90
72865;DHT22;61000;48.120;11.548;2024-01-25T03:31:27;8.30;99.90
72865;DHT22;61000;48.120;11.548;2024-01-25T03:33:54;8.30;99.90
72865;DHT22;61000;48.120;11.548;2024-01-25T03:36:21;8.20;99.90
72865;DHT22;61000;48.120;11.548;2024-01-25T03:38:48;8.20;99.90
72865;DHT22;61000;48.120;11.548;2024-01-25T03:41:15;8.20;99.90
72865;DHT22;61000;48.120;11.548;2024-01-25T03:43:42;8.20;99.90
72865;DHT22;61000;48.120;11.548;2024-01-25T03:46:10;8.20;99.90
72865;DHT22;61000;48.120;11.548;2024-01-25T03:48:37;8.20;99.90
72865;DHT22;61000;48.120;11.548;2024-01-25T03:51:04;8.10;99.90
72865;DHT22;61000;48.120;11.548;2024-01-25T03:53:32;8.20;99.90
72865;DHT22;61000;48.120;11.548;2024-01-25T03:55:59;8.10;99.90
72865;DHT22;61000;48.120;11.548;2024-01-25T03:58:26;8.10;99.90
72865;DHT22;61000;48.120;11.548;2024-01-25T04:00:53;8.10;99.90
72865;DHT22;61000;48.120;11.548;2024-01-25T04:03:20;8.10;99.90
72865;DHT22;61000;48.120;11.548;2024-01-25T04:05:48;8.10;99.90
72865;DHT22;61000;48.120;11.548;2024-01-25T04:08:15;8.20;99.90
72865;DHT22;61000;48.120;11.548;2024-01-25T04:10:42;8.10;99.90
72865;DHT22;61000;48.120;11.548;2024-01-25T04:13:08;8.10;99.90
72865;DHT22;61000;48.120;11.548;2024-01-25T04:15:35;8.10;99.90
72865;DHT22;61000;48.120;11.548;2024-01-25T04:18:02;8.10;99.90
72865;DHT22;61000;48.120;11.548;2024-01-25T04:20:29;8.20;99.90
72865;DHT22;61000;48.120;11.548;2024-01-25T04:22:58;8.20;99.90
72865;DHT22;61000;48.120;11.548;2024-01-25T04:25:25;8.20;99.90
72865;DHT22;61000;48.120;11.548;2024-01-25T04:27:52;8.20;99.90
72865;DHT22;61000;48.120;11.548;2024-01-25T04:30:19;8.20;99.90
72865;DHT22;61000;48.120;11.548;2024-01-25T04:32:46;8.10;99.90
72865;DHT22;61000;48.120;11.548;2024-01-25T04:35:12;8.10;99.90
72865;DHT22;61000;48.120;11.548;2024-01-25T04:37:39;8.10;99.90
72865;DHT22;61000;48.120;11.548;2024-01-25T04:40:08;8.10;99.90
72865;DHT22;61000;48.120;11.548;2024-01-25T04:42:36;8.00;99.90
72865;DHT22;61000;48.120;11.548;2024-01-25T04:45:04;8.10;99.90
72865;DHT22;61000;48.120;11.548;2024-01-25T04:47:31;8.00;99.90
72865;DHT22;61000;48.120;11.548;2024-01-25T04:49:58;8.00;99.90
72865;DHT22;61000;48.120;11.548;2024-01-25T04:52:25;8.00;99.90
72865;DHT22;61000;48.120;11.548;2024-01-25T04:54:52;8.00;99.90
72865;DHT22;61000;48.120;11.548;2024-01-25T04:57:21;8.00;99.90
72865;DHT22;61000;48.120;11.548;2024-01-25T04:59:47;8.00;99.90
72865;DHT22;61000;48.120;11.548;2024-01-25T05:02:14;8.00;99.90
72865;DHT22;61000;48.120;11.548;2024-01-25T05:04:41;8.00;99.90
72865;DHT22;61000;48.120;11.548;2024-01-25T05:07:08;8.00;99.90
72865;DHT22;61000;48.120;11.548;2024-01-25T05:09:35;8.00;99.90
72865;DHT22;61000;48.120;11.548;2024-01-25T05:12:02;8.00;99.90
72865;DHT22;61000;48.120;11.548;2024-01-25T05:14:30;8.00;99.90
72865;DHT22;61000;48.120;11.548;2024-01-25T05:16:57;7.90;99.90
72865;DHT22;61000;48.120;11.548;2024-01-25T05:19:24;8.00;99.90
72865;DHT22;61000;48.120;11.548;2024-01-25T05:21:51;7.90;99.90
72865;DHT22;61000;48.120;11.548;2024-01-25T05:24:17;8.00;99.90
72865;DHT22;61000;48.120;11.548;2024-01-25T05:26:44;7.90;99.90
72865;DHT22;61000;48.120;11.548;2024-01-25T05:29:11;7.90;99.90
72865;DHT22;61000;48.120;11.548;2024-01-25T05:31:40;7.90;99.90
72865;DHT22;61000;48.120;11.548;2024-01-25T05:34:06;7.90;99.90
72865;DHT22;61000;48.120;11.548;2024-01-25T05:36:33;7.90;99.90
72865;DHT22;61000;48.120;11.548;2024-01-25T05:39:00;7.90;99.90
72865;DHT22;61000;48.120;11.548;2024-01-25T05:41:32;7.90;99.90
72865;DHT22;61000;48.120;11.548;2024-01-25T05:43:59;7.90;99.90
72865;DHT22;61000;48.120;11.548;2024-01-25T05:46:26;7.80;99.90
72865;DHT22;61000;48.120;11.548;2024-01-25T05:48:54;7.90;99.90
72865;DHT22;61000;48.120;11.548;2024-01-25T05:51:21;7.90;99.90
72865;DHT22;61000;48.120;11.548;2024-01-25T05:53:48;7.80;99.90
72865;DHT22;61000;48.120;11.548;2024-01-25T05:56:15;7.80;99.90
72865;DHT22;61000;48.120;11.548;2024-01-25T05:58:42;7.80;99.90
72865;DHT22;61000;48.120;11.548;2024-01-25T06:01:09;7.80;99.90
72865;DHT22;61000;48.120;11.548;2024-01-25T06:03:36;7.80;99.90
72865;DHT22;61000;48.120;11.548;2024-01-25T06:06:04;7.80;99.90
72865;DHT22;61000;48.120;11.548;2024-01-25T06:08:33;7.80;99.90
72865;DHT22;61000;48.120;11.548;2024-01-25T06:11:00;7.80;99.90
72865;DHT22;61000;48.120;11.548;2024-01-25T06:13:27;7.70;99.90
72865;DHT22;61000;48.120;11.548;2024-01-25T06:15:54;7.70;99.90
72865;DHT22;61000;48.120;11.548;2024-01-25T06:18:21;7.70;99.90
72865;DHT22;61000;48.120;11.548;2024-01-25T06:20:48;7.70;99.90
72865;DHT22;61000;48.120;11.548;2024-01-25T06:23:17;7.70;99.90
72865;DHT22;61000;48.120;11.548;2024-01-25T06:25:44;7.70;99.90
72865;DHT22;61000;48.120;11.548;2024-01-25T06:28:11;7.70;99.90
72865;DHT22;61000;48.120;11.548;2024-01-25T06:30:38;7.70;99.90
72865;DHT22;61000;48.120;11.548;2024-01-25T06:33:05;7.70;99.90
72865;DHT22;61000;48.120;11.548;2024-01-25T06:35:32;7.70;99.90
72865;DHT22;61000;48.120;11.548;2024-01-25T06:37:59;7.60;99.90
72865;DHT22;61000;48.120;11.548;2024-01-25T06:40:27;7.60;99.90
72865;DHT22;61000;48.120;11.548;2024-01-25T06:42:54;7.60;99.90
72865;DHT22;61000;48.120;11.548;2024-01-25T06:45:21;7.50;99.90
72865;DHT22;61000;48.120;11.548;2024-01-25T06:47:48;7.60;99.90
72865;DHT22;61000;48.120;11.548;2024-01-25T06:50:15;7.60;99.90
72865;DHT22;61000;48.120;11.548;2024-01-25T06:52:41;7.50;99.90
72865;DHT22;61000;48.120;11.548;2024-01-25T06:55:09;7.50;99.90
72865;DHT22;61000;48.120;11.548;2024-01-25T06:57:38;7.40;99.90
72865;DHT22;61000;48.120;11.548;2024-01-25T07:00:06;7.40;99.90
72865;DHT22;61000;48.120;11.548;2024-01-25T07:02:32;7.30;99.90
72865;DHT22;61000;48.120;11.548;2024-01-25T07:04:59;7.30;99.90
72865;DHT22;61000;48.120;11.548;2024-01-25T07:07:27;7.30;99.90
72865;DHT22;61000;48.120;11.548;2024-01-25T07:09:53;7.30;99.90
72865;DHT22;61000;48.120;11.548;2024-01-25T07:12:20;7.30;99.90
72865;DHT22;61000;48.120;11.548;2024-01-25T07:14:48;7.30;99.90
72865;DHT22;61000;48.120;11.548;2024-01-25T07:17:15;7.20;99.90
72865;DHT22;61000;48.120;11.548;2024-01-25T07:19:42;7.20;99.90
72865;DHT22;61000;48.120;11.548;2024-01-25T07:22:09;7.20;99.90
72865;DHT22;61000;48.120;11.548;2024-01-25T07:24:37;7.10;99.90
72865;DHT22;61000;48.120;11.548;2024-01-25T07:27:04;7.10;99.90
72865;DHT22;61000;48.120;11.548;2024-01-25T07:29:31;7.10;99.90
72865;DHT22;61000;48.120;11.548;2024-01-25T07:31:59;7.10;99.90
72865;DHT22;61000;48.120;11.548;2024-01-25T07:34:26;7.10;99.90
72865;DHT22;61000;48.120;11.548;2024-01-25T07:36:53;7.10;99.90
72865;DHT22;61000;48.120;11.548;2024-01-25T07:39:20;7.10;99.90
72865;DHT22;61000;48.120;11.548;2024-01-25T07:41:46;7.00;99.90
72865;DHT22;61000;48.120;11.548;2024-01-25T07:44:13;7.00;99.90
72865;DHT22;61000;48.120;11.548;2024-01-25T07:46:40;7.10;99.90
72865;DHT22;61000;48.120;11.548;2024-01-25T07:49:08;7.10;99.90
72865;DHT22;61000;48.120;11.548;2024-01-25T07:51:35;7.10;99.90
72865;DHT22;61000;48.120;11.548;2024-01-25T07:54:02;7.10;99.90
72865;DHT22;61000;48.120;11.548;2024-01-25T07:56:29;7.10;99.90
72865;DHT22;61000;48.120;11.548;2024-01-25T07:58:56;7.10;99.90
72865;DHT22;61000;48.120;11.548;2024-01-25T08:01:25;7.10;99.90
72865;DHT22;61000;48.120;11.548;2024-01-25T08:03:52;7.10;99.90
72865;DHT22;61000;48.120;11.548;2024-01-25T08:06:20;7.20;99.90
72865;DHT22;61000;48.120;11.548;2024-01-25T08:08:48;7.20;99.90
72865;DHT22;61000;48.120;11.548;2024-01-25T08:11:15;7.20;99.90
72865;DHT22;61000;48.120;11.548;2024-01-25T08:13:44;7.30;99.90
72865;DHT22;61000;48.120;11.548;2024-01-25T08:16:11;7.30;99.90
72865;DHT22;61000;48.120;11.548;2024-01-25T08:18:39;7.30;99.90
72865;DHT22;61000;48.120;11.548;2024-01-25T08:21:06;7.40;99.90
72865;DHT22;61000;48.120;11.548;2024-01-25T08:23:34;7.30;99.90
72865;DHT22;61000;48.120;11.548;2024-01-25T08:26:01;7.40;99.90
72865;DHT22;61000;48.120;11.548;2024-01-25T08:28:28;7.40;99.90
72865;DHT22;61000;48.120;11.548;2024-01-25T08:30:55;7.40;99.90
72865;DHT22;61000;48.120;11.548;2024-01-25T08:33:22;7.50;99.90
72865;DHT22;61000;48.120;11.548;2024-01-25T08:35:50;7.50;99.90
72865;DHT22;61000;48.120;11.548;2024-01-25T08:38:17;7.60;99.90
72865;DHT22;61000;48.120;11.548;2024-01-25T08:40:46;7.60;99.90
72865;DHT22;61000;48.120;11.548;2024-01-25T08:43:12;7.70;99.90
72865;DHT22;61000;48.120;11.548;2024-01-25T08:45:39;7.70;99.90
72865;DHT22;61000;48.120;11.548;2024-01-25T08:48:07;7.70;99.90
72865;DHT22;61000;48.120;11.548;2024-01-25T08:50:34;7.80;99.90
72865;DHT22;61000;48.120;11.548;2024-01-25T08:53:01;7.80;99.90
72865;DHT22;61000;48.120;11.548;2024-01-25T08:55:28;7.90;99.90
72865;DHT22;61000;48.120;11.548;2024-01-25T08:57:56;8.00;99.90
72865;DHT22;61000;48.120;11.548;2024-01-25T09:00:23;8.10;99.90
72865;DHT22;61000;48.120;11.548;2024-01-25T09:02:50;8.20;99.90
72865;DHT22;61000;48.120;11.548;2024-01-25T09:05:17;8.30;99.90
72865;DHT22;61000;48.120;11.548;2024-01-25T09:07:44;8.30;99.90
72865;DHT22;61000;48.120;11.548;2024-01-25T09:10:10;8.30;99.90
72865;DHT22;61000;48.120;11.548;2024-01-25T09:12:38;8.30;99.90
72865;DHT22;61000;48.120;11.548;2024-01-25T09:15:07;8.30;99.90
72865;DHT22;61000;48.120;11.548;2024-01-25T09:17:35;8.30;99.90
72865;DHT22;61000;48.120;11.548;2024-01-25T09:20:01;8.30;99.90
72865;DHT22;61000;48.120;11.548;2024-01-25T09:22:29;8.30;99.90
72865;DHT22;61000;48.120;11.548;2024-01-25T09:24:56;8.30;99.90
72865;DHT22;61000;48.120;11.548;2024-01-25T09:27:23;8.20;99.90
72865;DHT22;61000;48.120;11.548;2024-01-25T09:29:50;8.20;99.90
72865;DHT22;61000;48.120;11.548;2024-01-25T09:32:18;8.30;99.90
72865;DHT22;61000;48.120;11.548;2024-01-25T09:34:46;8.30;99.90
72865;DHT22;61000;48.120;11.548;2024-01-25T09:37:13;8.30;99.90
72865;DHT22;61000;48.120;11.548;2024-01-25T09:39:40;8.30;99.90
72865;DHT22;61000;48.120;11.548;2024-01-25T09:42:07;8.30;99.90
72865;DHT22;61000;48.120;11.548;2024-01-25T09:44:34;8.30;99.90
72865;DHT22;61000;48.120;11.548;2024-01-25T09:47:03;8.30;99.90
72865;DHT22;61000;48.120;11.548;2024-01-25T09:49:34;8.30;99.90
72865;DHT22;61000;48.120;11.548;2024-01-25T09:52:02;8.30;99.90
72865;DHT22;61000;48.120;11.548;2024-01-25T09:54:31;8.40;99.90
72865;DHT22;61000;48.120;11.548;2024-01-25T09:57:03;8.50;99.90
72865;DHT22;61000;48.120;11.548;2024-01-25T09:59:32;8.60;99.90
72865;DHT22;61000;48.120;11.548;2024-01-25T10:02:01;8.70;99.90
72865;DHT22;61000;48.120;11.548;2024-01-25T10:04:28;8.70;99.90
72865;DHT22;61000;48.120;11.548;2024-01-25T10:06:56;8.80;99.90
72865;DHT22;61000;48.120;11.548;2024-01-25T10:09:24;8.90;99.90
72865;DHT22;61000;48.120;11.548;2024-01-25T10:11:52;9.10;99.90
72865;DHT22;61000;48.120;11.548;2024-01-25T10:14:20;9.20;99.90
72865;DHT22;61000;48.120;11.548;2024-01-25T10:16:46;9.20;99.90
72865;DHT22;61000;48.120;11.548;2024-01-25T10:19:13;9.20;99.90
72865;DHT22;61000;48.120;11.548;2024-01-25T10:21:41;9.10;99.90
72865;DHT22;61000;48.120;11.548;2024-01-25T10:24:09;9.10;99.80
72865;DHT22;61000;48.120;11.548;2024-01-25T10:26:36;8.80;99.20
72865;DHT22;61000;48.120;11.548;2024-01-25T10:29:03;8.90;99.20
72865;DHT22;61000;48.120;11.548;2024-01-25T10:31:32;8.80;99.20
72865;DHT22;61000;48.120;11.548;2024-01-25T10:34:02;8.80;99.30
72865;DHT22;61000;48.120;11.548;2024-01-25T10:36:29;8.80;99.30
72865;DHT22;61000;48.120;11.548;2024-01-25T10:38:57;8.70;99.50
72865;DHT22;61000;48.120;11.548;2024-01-25T10:41:27;8.70;99.60
72865;DHT22;61000;48.120;11.548;2024-01-25T10:43:54;8.70;99.70
72865;DHT22;61000;48.120;11.548;2024-01-25T10:46:21;8.80;99.60
72865;DHT22;61000;48.120;11.548;2024-01-25T10:48:49;8.70;99.40
72865;DHT22;61000;48.120;11.548;2024-01-25T10:51:17;8.80;99.40
72865;DHT22;61000;48.120;11.548;2024-01-25T10:53:45;8.80;99.50
72865;DHT22;61000;48.120;11.548;2024-01-25T10:56:13;8.90;99.70
72865;DHT22;61000;48.120;11.548;2024-01-25T10:58:42;8.90;99.80
72865;DHT22;61000;48.120;11.548;2024-01-25T11:01:10;9.10;99.80
72865;DHT22;61000;48.120;11.548;2024-01-25T11:03:39;9.10;99.90
72865;DHT22;61000;48.120;11.548;2024-01-25T11:06:07;9.10;99.70
72865;DHT22;61000;48.120;11.548;2024-01-25T11:08:35;9.10;99.10
72865;DHT22;61000;48.120;11.548;2024-01-25T11:11:05;9.10;99.20
72865;DHT22;61000;48.120;11.548;2024-01-25T11:13:33;9.00;99.00
72865;DHT22;61000;48.120;11.548;2024-01-25T11:16:12;8.80;99.20
72865;DHT22;61000;48.120;11.548;2024-01-25T11:18:48;8.80;99.50
72865;DHT22;61000;48.120;11.548;2024-01-25T11:21:25;8.80;99.70
72865;DHT22;61000;48.120;11.548;2024-01-25T11:23:59;8.80;99.80
72865;DHT22;61000;48.120;11.548;2024-01-25T11:26:27;8.80;99.90
72865;DHT22;61000;48.120;11.548;2024-01-25T11:28:54;8.70;99.90
72865;DHT22;61000;48.120;11.548;2024-01-25T11:31:23;8.70;99.90
72865;DHT22;61000;48.120;11.548;2024-01-25T11:33:51;8.70;99.90
72865;DHT22;61000;48.120;11.548;2024-01-25T11:36:20;8.70;99.90
72865;DHT22;61000;48.120;11.548;2024-01-25T11:38:48;8.80;99.80
72865;DHT22;61000;48.120;11.548;2024-01-25T11:41:14;8.80;99.80
72865;DHT22;61000;48.120;11.548;2024-01-25T11:43:41;8.90;99.80
72865;DHT22;61000;48.120;11.548;2024-01-25T11:46:08;9.00;99.50
72865;DHT22;61000;48.120;11.548;2024-01-25T11:48:40;9.00;99.50
72865;DHT22;61000;48.120;11.548;2024-01-25T11:51:09;9.10;99.50
72865;DHT22;61000;48.120;11.548;2024-01-25T11:53:36;9.10;99.20
72865;DHT22;61000;48.120;11.548;2024-01-25T11:56:04;9.10;99.10
72865;DHT22;61000;48.120;11.548;2024-01-25T11:58:33;9.20;98.90
72865;DHT22;61000;48.120;11.548;2024-01-25T12:01:00;9.20;98.60
72865;DHT22;61000;48.120;11.548;2024-01-25T12:03:29;9.30;98.40
72865;DHT22;61000;48.120;11.548;2024-01-25T12:05:57;9.30;98.20
72865;DHT22;61000;48.120;11.548;2024-01-25T12:08:26;9.30;98.20
72865;DHT22;61000;48.120;11.548;2024-01-25T12:11:03;9.20;97.90
72865;DHT22;61000;48.120;11.548;2024-01-25T12:13:32;9.20;98.10
72865;DHT22;61000;48.120;11.548;2024-01-25T12:15:59;9.20;98.20
72865;DHT22;61000;48.120;11.548;2024-01-25T12:18:27;9.20;98.30
72865;DHT22;61000;48.120;11.548;2024-01-25T12:20:54;9.20;98.30
72865;DHT22;61000;48.120;11.548;2024-01-25T12:23:23;9.20;98.30
72865;DHT22;61000;48.120;11.548;2024-01-25T12:25:59;9.20;98.30
72865;DHT22;61000;48.120;11.548;2024-01-25T12:28:26;9.20;98.30
72865;DHT22;61000;48.120;11.548;2024-01-25T12:30:53;9.30;98.40
72865;DHT22;61000;48.120;11.548;2024-01-25T12:33:20;9.30;98.20
72865;DHT22;61000;48.120;11.548;2024-01-25T12:35:47;9.40;98.10
72865;DHT22;61000;48.120;11.548;2024-01-25T12:38:14;9.50;97.90
72865;DHT22;61000;48.120;11.548;2024-01-25T12:40:43;9.60;97.80
72865;DHT22;61000;48.120;11.548;2024-01-25T12:43:10;9.60;97.70
72865;DHT22;61000;48.120;11.548;2024-01-25T12:45:37;9.60;97.90
72865;DHT22;61000;48.120;11.548;2024-01-25T12:48:05;9.50;97.80
72865;DHT22;61000;48.120;11.548;2024-01-25T12:50:33;9.50;98.10
72865;DHT22;61000;48.120;11.548;2024-01-25T12:53:00;9.60;98.20
72865;DHT22;61000;48.120;11.548;2024-01-25T12:55:28;9.60;97.80
72865;DHT22;61000;48.120;11.548;2024-01-25T12:57:57;9.70;98.00
72865;DHT22;61000;48.120;11.548;2024-01-25T13:00:24;9.70;97.80
72865;DHT22;61000;48.120;11.548;2024-01-25T13:02:51;9.70;97.60
72865;DHT22;61000;48.120;11.548;2024-01-25T13:05:19;9.60;97.00
72865;DHT22;61000;48.120;11.548;2024-01-25T13:07:46;9.60;97.20
72865;DHT22;61000;48.120;11.548;2024-01-25T13:10:13;9.60;97.10
72865;DHT22;61000;48.120;11.548;2024-01-25T13:12:40;9.70;97.20
72865;DHT22;61000;48.120;11.548;2024-01-25T13:15:09;9.70;97.20
72865;DHT22;61000;48.120;11.548;2024-01-25T13:17:36;9.70;97.10
72865;DHT22;61000;48.120;11.548;2024-01-25T13:20:04;9.80;97.20
72865;DHT22;61000;48.120;11.548;2024-01-25T13:22:32;9.80;97.40
72865;DHT22;61000;48.120;11.548;2024-01-25T13:24:59;9.80;97.60
72865;DHT22;61000;48.120;11.548;2024-01-25T13:27:26;9.80;97.40
72865;DHT22;61000;48.120;11.548;2024-01-25T13:29:53;9.80;97.10
72865;DHT22;61000;48.120;11.548;2024-01-25T13:32:22;9.80;97.10
72865;DHT22;61000;48.120;11.548;2024-01-25T13:34:49;9.80;97.10
72865;DHT22;61000;48.120;11.548;2024-01-25T13:37:16;9.90;97.10
72865;DHT22;61000;48.120;11.548;2024-01-25T13:39:43;9.90;96.50
72865;DHT22;61000;48.120;11.548;2024-01-25T13:42:10;10.00;96.50
72865;DHT22;61000;48.120;11.548;2024-01-25T13:44:37;10.10;96.50
72865;DHT22;61000;48.120;11.548;2024-01-25T13:47:05;10.00;96.80
72865;DHT22;61000;48.120;11.548;2024-01-25T13:49:33;10.00;97.10
72865;DHT22;61000;48.120;11.548;2024-01-25T13:52:01;10.00;97.10
72865;DHT22;61000;48.120;11.548;2024-01-25T13:54:29;10.10;97.30
72865;DHT22;61000;48.120;11.548;2024-01-25T13:56:56;10.00;97.40
72865;DHT22;61000;48.120;11.548;2024-01-25T13:59:23;9.90;97.40
72865;DHT22;61000;48.120;11.548;2024-01-25T14:01:51;9.90;97.30
72865;DHT22;61000;48.120;11.548;2024-01-25T14:04:18;9.80;96.60
72865;DHT22;61000;48.120;11.548;2024-01-25T14:06:46;9.80;97.30
72865;DHT22;61000;48.120;11.548;2024-01-25T14:09:13;9.80;97.00
72865;DHT22;61000;48.120;11.548;2024-01-25T14:11:40;9.80;97.10
72865;DHT22;61000;48.120;11.548;2024-01-25T14:14:07;9.80;97.30
72865;DHT22;61000;48.120;11.548;2024-01-25T14:16:35;9.80;97.40
72865;DHT22;61000;48.120;11.548;2024-01-25T14:19:02;9.70;97.30
72865;DHT22;61000;48.120;11.548;2024-01-25T14:21:30;9.70;97.20
72865;DHT22;61000;48.120;11.548;2024-01-25T14:23:58;9.70;97.30
72865;DHT22;61000;48.120;11.548;2024-01-25T14:26:25;9.70;97.40
72865;DHT22;61000;48.120;11.548;2024-01-25T14:28:52;9.70;96.90
72865;DHT22;61000;48.120;11.548;2024-01-25T14:31:18;9.70;97.10
72865;DHT22;61000;48.120;11.548;2024-01-25T14:33:48;9.70;97.60
72865;DHT22;61000;48.120;11.548;2024-01-25T14:36:15;9.00;97.60
72865;DHT22;61000;48.120;11.548;2024-01-25T14:38:42;9.60;97.90
72865;DHT22;61000;48.120;11.548;2024-01-25T14:41:10;9.60;98.00
72865;DHT22;61000;48.120;11.548;2024-01-25T14:43:38;9.60;98.20
72865;DHT22;61000;48.120;11.548;2024-01-25T14:46:05;9.50;98.10
72865;DHT22;61000;48.120;11.548;2024-01-25T14:48:32;9.50;98.20
72865;DHT22;61000;48.120;11.548;2024-01-25T14:50:59;9.50;98.30
72865;DHT22;61000;48.120;11.548;2024-01-25T14:53:26;9.50;98.30
72865;DHT22;61000;48.120;11.548;2024-01-25T14:55:53;9.50;98.30
72865;DHT22;61000;48.120;11.548;2024-01-25T14:58:21;8.70;98.20
72865;DHT22;61000;48.120;11.548;2024-01-25T15:00:50;9.40;98.50
72865;DHT22;61000;48.120;11.548;2024-01-25T15:03:17;9.40;98.60
72865;DHT22;61000;48.120;11.548;2024-01-25T15:05:44;9.30;98.70
72865;DHT22;61000;48.120;11.548;2024-01-25T15:08:11;9.30;98.70
72865;DHT22;61000;48.120;11.548;2024-01-25T15:10:38;9.30;98.80
72865;DHT22;61000;48.120;11.548;2024-01-25T15:13:05;9.30;98.90
72865;DHT22;61000;48.120;11.548;2024-01-25T15:15:34;9.20;99.00
72865;DHT22;61000;48.120;11.548;2024-01-25T15:18:01;9.20;99.00
72865;DHT22;61000;48.120;11.548;2024-01-25T15:20:28;9.20;99.20
72865;DHT22;61000;48.120;11.548;2024-01-25T15:22:55;9.90;99.50
72865;DHT22;61000;48.120;11.548;2024-01-25T15:25:23;9.20;99.30
72865;DHT22;61000;48.120;11.548;2024-01-25T15:27:52;9.20;99.40
72865;DHT22;61000;48.120;11.548;2024-01-25T15:30:19;9.20;99.60
72865;DHT22;61000;48.120;11.548;2024-01-25T15:32:47;9.10;99.70